createdAt,value
2022-12-06T00:03:02.337Z,97465.50
2022-12-06T00:08:06.908Z,97466.03
2022-12-06T00:13:11.158Z,97453.81
2022-12-06T00:18:16.848Z,97456.69
2022-12-06T00:23:21.268Z,97456.84
2022-12-06T00:28:25.134Z,97436.97
2022-12-06T00:33:30.792Z,97436.28
2022-12-06T00:38:36.480Z,97431.41
2022-12-06T00:43:40.983Z,97439.06
2022-12-06T00:48:46.606Z,97437.41
2022-12-06T00:53:51.041Z,97435.34
2022-12-06T00:58:55.263Z,97439.13
2022-12-06T01:04:02.056Z,97429.19
2022-12-06T01:09:07.505Z,97433.66
2022-12-06T01:14:11.164Z,97430.31
2022-12-06T01:19:16.204Z,97439.19
2022-12-06T01:24:19.766Z,97433.72
2022-12-06T01:29:23.403Z,97433.91
2022-12-06T01:34:28.398Z,97438.88
2022-12-06T01:39:32.173Z,97438.97
2022-12-06T01:44:42.843Z,97437.41
2022-12-06T01:49:53.075Z,97440.28
2022-12-06T01:54:57.395Z,97434.41
2022-12-06T02:00:01.858Z,97423.06
2022-12-06T02:05:18.076Z,97414.28
2022-12-06T02:10:22.330Z,97411.81
2022-12-06T02:15:33.362Z,97412.44
2022-12-06T02:20:46.479Z,97413.44
2022-12-06T02:26:15.322Z,97405.50
2022-12-06T02:31:27.134Z,97405.16
2022-12-06T02:36:37.567Z,97411.66
2022-12-06T02:41:46.957Z,97412.00
2022-12-06T02:46:52.635Z,97410.97
2022-12-06T02:51:58.314Z,97403.47
2022-12-06T02:57:02.030Z,97400.97
2022-12-06T03:02:12.736Z,97395.44
2022-12-06T03:07:33.706Z,97388.22
2022-12-06T03:12:44.700Z,97386.06
2022-12-06T03:17:54.251Z,97375.06
2022-12-06T03:23:02.627Z,97371.56
2022-12-06T03:28:11.880Z,97370.16
2022-12-06T03:33:18.269Z,97365.38
2022-12-06T03:38:29.208Z,97361.78
2022-12-06T03:43:33.732Z,97354.63
2022-12-06T03:48:44.790Z,97355.84
2022-12-06T03:53:50.852Z,97346.63
2022-12-06T03:58:54.598Z,97335.16
2022-12-06T04:03:59.919Z,97344.41
2022-12-06T04:09:17.577Z,97335.41
2022-12-06T04:14:21.101Z,97328.81
2022-12-06T04:19:26.240Z,97335.63
2022-12-06T04:24:29.748Z,97324.19
2022-12-06T04:29:50.869Z,97322.94
2022-12-06T04:35:13.470Z,97313.88
2022-12-06T04:40:17.117Z,97315.47
2022-12-06T04:45:20.682Z,97308.97
2022-12-06T04:50:25.803Z,97308.56
2022-12-06T04:55:29.891Z,97311.28
2022-12-06T05:00:33.761Z,97314.94
2022-12-06T05:05:39.242Z,97311.28
2022-12-06T05:10:42.926Z,97304.59
2022-12-06T05:15:52.068Z,97319.38
2022-12-06T05:21:05.857Z,97314.88
2022-12-06T05:26:13.111Z,97300.44
2022-12-06T05:31:17.916Z,97315.50
2022-12-06T05:36:25.566Z,97317.13
2022-12-06T05:41:29.445Z,97311.91
2022-12-06T05:46:32.983Z,97316.28
2022-12-06T05:51:38.175Z,97315.03
2022-12-06T05:56:41.828Z,97315.59
2022-12-06T06:01:45.580Z,97316.19
2022-12-06T06:06:51.522Z,97308.28
2022-12-06T06:11:55.224Z,97307.75
2022-12-06T06:16:58.930Z,97305.91
2022-12-06T06:22:04.129Z,97293.44
2022-12-06T06:27:07.848Z,97293.97
2022-12-06T06:32:12.674Z,97295.34
2022-12-06T06:37:18.009Z,97300.81
2022-12-06T06:42:21.793Z,97305.78
2022-12-06T06:47:25.512Z,97300.34
2022-12-06T06:52:30.763Z,97301.91
2022-12-06T06:57:36.161Z,97305.16
2022-12-06T07:02:40.022Z,97308.28
2022-12-06T07:07:46.767Z,97304.53
2022-12-06T07:12:52.086Z,97301.50
2022-12-06T07:17:55.729Z,97311.13
2022-12-06T07:23:00.999Z,97316.50
2022-12-06T07:28:05.410Z,97317.56
2022-12-06T07:33:08.954Z,97320.34
2022-12-06T07:38:13.934Z,97324.44
2022-12-06T07:43:34.708Z,97327.13
2022-12-06T07:48:38.463Z,97325.94
2022-12-06T07:53:43.545Z,97320.94
2022-12-06T07:58:47.246Z,97320.63
2022-12-06T08:03:51.273Z,97320.06
2022-12-06T08:08:56.495Z,97323.03
2022-12-06T08:14:00.249Z,97331.31
2022-12-06T08:19:04.145Z,97326.09
2022-12-06T08:24:09.873Z,97333.31
2022-12-06T08:29:13.496Z,97332.47
2022-12-06T08:34:17.214Z,97338.09
2022-12-06T08:39:25.436Z,97344.31
2022-12-06T08:44:30.169Z,97350.91
2022-12-06T08:49:34.177Z,97339.09
2022-12-06T08:54:40.834Z,97346.78
2022-12-06T08:59:44.859Z,97349.41
2022-12-06T09:04:52.045Z,97341.75
2022-12-06T09:09:58.090Z,97357.78
2022-12-06T09:15:01.913Z,97363.31
2022-12-06T09:20:07.466Z,97351.44
2022-12-06T09:25:13.521Z,97359.38
2022-12-06T09:30:17.634Z,97360.34
2022-12-06T09:35:25.046Z,97369.97
2022-12-06T09:40:39.829Z,97375.81
2022-12-06T09:46:12.461Z,97372.31
2022-12-06T09:51:31.174Z,97365.38
2022-12-06T09:56:40.539Z,97371.63
2022-12-06T10:01:59.761Z,97368.44
2022-12-06T10:07:09.850Z,97360.31
2022-12-06T10:12:27.980Z,97360.47
2022-12-06T10:17:43.365Z,97359.75
2022-12-06T10:23:00.866Z,97353.84
2022-12-06T10:28:14.339Z,97350.03
2022-12-06T10:33:23.382Z,97346.19
2022-12-06T10:38:31.897Z,97353.25
2022-12-06T10:43:45.335Z,97358.75
2022-12-06T10:48:59.016Z,97344.31
2022-12-06T10:54:13.117Z,97346.84
2022-12-06T10:59:27.938Z,97347.69
2022-12-06T11:04:35.094Z,97339.50
2022-12-06T11:09:43.361Z,97338.91
2022-12-06T11:14:53.716Z,97335.75
2022-12-06T11:20:03.403Z,97324.91
2022-12-06T11:25:17.570Z,97325.81
2022-12-06T11:30:22.872Z,97319.91
2022-12-06T11:35:28.779Z,97322.28
2022-12-06T11:40:36.568Z,97319.66
2022-12-06T11:45:45.389Z,97326.31
2022-12-06T11:50:50.870Z,97319.34
2022-12-06T11:55:58.194Z,97312.31
2022-12-06T12:01:06.216Z,97317.28
2022-12-06T12:06:22.820Z,97311.47
2022-12-06T12:11:29.102Z,97304.78
2022-12-06T12:16:37.693Z,97305.88
2022-12-06T12:21:43.882Z,97304.63
2022-12-06T12:26:47.687Z,97299.91
2022-12-06T12:31:58.824Z,97298.44
2022-12-06T12:37:05.585Z,97295.03
2022-12-06T12:42:28.525Z,97294.66
2022-12-06T12:47:35.418Z,97300.44
2022-12-06T12:52:40.793Z,97293.22
2022-12-06T12:57:47.127Z,97289.66
2022-12-06T13:02:58.038Z,97295.09
2022-12-06T13:08:07.275Z,97296.09
2022-12-06T13:13:16.783Z,97297.94
2022-12-06T13:18:24.291Z,97300.06
2022-12-06T13:23:31.045Z,97299.47
2022-12-06T13:28:40.540Z,97294.91
2022-12-06T13:33:51.226Z,97294.56
2022-12-06T13:38:56.462Z,97296.28
2022-12-06T13:44:00.129Z,97294.66
2022-12-06T13:49:26.089Z,97301.75
2022-12-06T13:54:34.059Z,97296.78
2022-12-06T13:59:41.523Z,97303.50
2022-12-06T14:04:46.535Z,97302.50
2022-12-06T14:09:52.275Z,97308.00
2022-12-06T14:14:58.044Z,97309.19
2022-12-06T14:20:19.581Z,97308.09
2022-12-06T14:25:27.014Z,97306.47
2022-12-06T14:30:31.193Z,97307.91
2022-12-06T14:35:36.918Z,97304.47
2022-12-06T14:40:56.374Z,97316.91
2022-12-06T14:46:01.886Z,97317.00
2022-12-06T14:51:07.644Z,97310.00
2022-12-06T14:56:25.003Z,97305.47
2022-12-06T15:01:31.997Z,97299.47
2022-12-06T15:06:38.769Z,97309.59
2022-12-06T15:12:01.798Z,97303.44
2022-12-06T15:17:15.727Z,97311.31
2022-12-06T15:22:25.206Z,97311.16
2022-12-06T15:27:31.546Z,97308.97
2022-12-06T15:32:35.321Z,97304.75
2022-12-06T15:37:42.869Z,97301.72
2022-12-06T15:42:48.639Z,97302.56
2022-12-06T15:47:54.130Z,97302.19
2022-12-06T15:52:59.267Z,97314.28
2022-12-06T15:58:02.957Z,97308.44
2022-12-06T16:03:07.757Z,97311.84
2022-12-06T16:08:13.016Z,97316.59
2022-12-06T16:13:23.498Z,97315.81
2022-12-06T16:18:27.453Z,97314.25
2022-12-06T16:24:12.394Z,97315.44
2022-12-06T16:29:16.322Z,97318.34
2022-12-06T16:34:20.031Z,97319.94
2022-12-06T16:39:25.129Z,97316.13
2022-12-06T16:44:28.826Z,97313.84
2022-12-06T16:49:49.356Z,97322.47
2022-12-06T16:54:54.837Z,97309.25
2022-12-06T17:00:00.142Z,97304.59
2022-12-06T17:05:06.888Z,97310.28
2022-12-06T17:10:13.118Z,97310.75
2022-12-06T17:15:20.001Z,97307.00
2022-12-06T17:20:23.676Z,97305.41
2022-12-06T17:25:28.834Z,97308.00
2022-12-06T17:30:33.651Z,97295.28
2022-12-06T17:35:37.254Z,97298.25
2022-12-06T17:40:42.250Z,97305.91
2022-12-06T17:45:45.973Z,97308.34
2022-12-06T17:50:49.603Z,97306.88
2022-12-06T17:55:54.667Z,97309.88
2022-12-06T18:01:01.093Z,97317.06
2022-12-06T18:06:10.256Z,97313.88
2022-12-06T18:11:16.478Z,97305.66
2022-12-06T18:16:22.857Z,97310.69
2022-12-06T18:21:26.686Z,97313.09
2022-12-06T18:26:32.027Z,97310.16
2022-12-06T18:31:36.822Z,97314.72
2022-12-06T18:36:40.818Z,97318.16
2022-12-06T18:41:46.098Z,97317.19
2022-12-06T18:46:49.769Z,97315.31
2022-12-06T18:51:53.373Z,97310.59
2022-12-06T18:56:59.927Z,97313.94
2022-12-06T19:02:03.731Z,97315.75
2022-12-06T19:07:07.651Z,97312.53
2022-12-06T19:12:12.853Z,97312.22
2022-12-06T19:17:16.735Z,97320.41
2022-12-06T19:22:20.367Z,97324.25
2022-12-06T19:27:25.815Z,97317.50
2022-12-06T19:32:32.173Z,97315.63
2022-12-06T19:37:37.024Z,97316.56
2022-12-06T19:42:59.780Z,97316.34
2022-12-06T19:48:03.742Z,97324.50
2022-12-06T19:53:08.848Z,97316.91
2022-12-06T19:58:14.295Z,97312.47
2022-12-06T20:03:18.232Z,97314.16
2022-12-06T20:08:22.101Z,97311.13
2022-12-06T20:13:27.263Z,97317.28
2022-12-06T20:18:32.292Z,97307.00
2022-12-06T20:23:36.244Z,97307.31
2022-12-06T20:28:41.463Z,97308.88
2022-12-06T20:33:46.518Z,97308.09
2022-12-06T20:38:52.284Z,97323.03
2022-12-06T20:43:58.445Z,97319.03
2022-12-06T20:49:05.524Z,97316.94
2022-12-06T20:54:10.512Z,97321.56
2022-12-06T20:59:15.745Z,97309.66
2022-12-06T21:04:19.376Z,97316.66
2022-12-06T21:09:23.834Z,97313.25
2022-12-06T21:14:28.861Z,97301.59
2022-12-06T21:19:33.095Z,97309.28
2022-12-06T21:24:37.088Z,97309.28
2022-12-06T21:29:43.044Z,97304.00
2022-12-06T21:34:47.237Z,97306.38
2022-12-06T21:39:51.060Z,97304.97
2022-12-06T21:44:57.363Z,97306.50
2022-12-06T21:50:01.807Z,97303.22
2022-12-06T21:55:07.305Z,97308.56
2022-12-06T22:00:15.256Z,97308.28
2022-12-06T22:05:19.530Z,97300.50
2022-12-06T22:10:23.463Z,97305.72
2022-12-06T22:15:28.558Z,97300.50
2022-12-06T22:20:33.000Z,97314.72
2022-12-06T22:25:39.949Z,97306.16
2022-12-06T22:30:45.389Z,97301.19
2022-12-06T22:35:48.976Z,97310.44
2022-12-06T22:40:57.526Z,97316.50
2022-12-06T22:46:06.628Z,97310.28
2022-12-06T22:51:15.753Z,97310.09
2022-12-06T22:56:19.780Z,97301.63
2022-12-06T23:01:26.588Z,97297.25
2022-12-06T23:06:30.263Z,97294.09
2022-12-06T23:11:36.171Z,97292.09
2022-12-06T23:16:44.435Z,97287.47
2022-12-06T23:21:48.363Z,97283.72
2022-12-06T23:26:57.689Z,97264.88
2022-12-06T23:32:05.539Z,97271.44
2022-12-06T23:37:09.211Z,97276.03
2022-12-06T23:42:12.924Z,97287.22
2022-12-06T23:47:18.000Z,97270.50
2022-12-06T23:52:22.390Z,97268.66
2022-12-06T23:57:27.070Z,97258.38
